Time;durP1;ratioP1;P1;durP2;ratioP2;P2;SDS_P1;SDS_P2;PMS_P1;PMS_P2;Temp;Humidity;BMP_temperature;BMP_pressure;BME280_temperature;BME280_humidity;BME280_pressure;Samples;Min_cycle;Max_cycle;Signal;HPM_P1;HPM_P2
2023/08/23 00:00:27;;;;;;;0.15;0.10;;;;;;;22.24;64.39;97818.38;5114182;28;20122;-68
2023/08/23 00:02:55;;;;;;;0.20;0.20;;;;;;;22.40;63.26;97832.91;5095858;28;20047;-68
2023/08/23 00:05:23;;;;;;;0.32;0.20;;;;;;;22.38;62.73;97823.38;5110991;28;20038;-68
2023/08/23 00:07:52;;;;;;;0.20;0.20;;;;;;;22.23;64.64;97830.34;5082093;28;20052;-68
2023/08/23 00:10:19;;;;;;;0.20;0.20;;;;;;;22.28;65.39;97822.22;5103758;28;20534;-68
2023/08/23 00:12:49;;;;;;;0.30;0.20;;;;;;;22.12;65.88;97827.81;5115574;28;20498;-69
2023/08/23 00:15:17;;;;;;;0.20;0.20;;;;;;;22.00;66.48;97828.06;5108112;28;20471;-69
2023/08/23 00:17:45;;;;;;;0.20;0.20;;;;;;;21.99;66.56;97826.41;5110689;28;20115;-68
2023/08/23 00:20:13;;;;;;;0.30;0.30;;;;;;;22.03;66.31;97826.69;5111210;28;20116;-68
2023/08/23 00:22:41;;;;;;;0.20;0.20;;;;;;;21.92;66.83;97823.88;5111166;28;20122;-68
2023/08/23 00:25:10;;;;;;;0.17;0.17;;;;;;;21.80;67.30;97822.44;5117619;28;20069;-68
2023/08/23 00:27:38;;;;;;;0.10;0.10;;;;;;;21.80;67.28;97820.53;5082986;28;20135;-68
2023/08/23 00:30:06;;;;;;;0.10;0.10;;;;;;;21.70;68.17;97815.00;5091678;28;20052;-68
2023/08/23 00:32:34;;;;;;;0.20;0.20;;;;;;;21.72;67.32;97814.75;5111223;28;20043;-68
2023/08/23 00:35:05;;;;;;;0.60;0.25;;;;;;;21.68;67.92;97819.91;5092447;28;20051;-69
2023/08/23 00:37:32;;;;;;;0.13;0.13;;;;;;;21.61;68.54;97817.41;5112746;28;20044;-69
2023/08/23 00:40:01;;;;;;;0.20;0.10;;;;;;;21.64;68.44;97813.34;5117139;27;20035;-69
2023/08/23 00:42:33;;;;;;;0.20;0.20;;;;;;;21.44;69.31;97819.44;5096219;28;20406;-68
2023/08/23 00:45:00;;;;;;;0.15;0.15;;;;;;;21.38;69.55;97825.91;5106930;27;20044;-69
2023/08/23 00:47:28;;;;;;;0.10;0.10;;;;;;;21.34;69.37;97823.97;5109142;28;20486;-70
2023/08/23 00:49:57;;;;;;;0.20;0.20;;;;;;;21.17;69.94;97827.59;5110274;27;20046;-69
2023/08/23 00:52:26;;;;;;;0.35;0.22;;;;;;;20.98;70.67;97828.19;5094662;28;20067;-69
2023/08/23 00:55:06;;;;;;;0.10;0.10;;;;;;;20.95;70.89;97812.44;5094922;28;20040;-69
2023/08/23 00:57:35;;;;;;;0.30;0.20;;;;;;;20.98;70.21;97820.84;5114368;28;20088;-69
2023/08/23 01:00:04;;;;;;;0.28;0.20;;;;;;;21.01;70.10;97811.38;5114034;27;20046;-69
2023/08/23 01:02:33;;;;;;;0.10;0.10;;;;;;;20.98;69.75;97814.59;5096179;28;20071;-69
2023/08/23 01:05:00;;;;;;;1.20;0.30;;;;;;;20.99;69.66;97805.38;5089273;28;20040;-69
2023/08/23 01:07:34;;;;;;;0.20;0.17;;;;;;;21.02;70.04;97811.13;5105965;28;20405;-68
2023/08/23 01:10:06;;;;;;;0.20;0.20;;;;;;;20.88;70.61;97813.44;5092997;28;20039;-69
2023/08/23 01:12:38;;;;;;;0.20;0.20;;;;;;;20.93;70.52;97817.28;5114012;28;20039;-69
2023/08/23 01:15:07;;;;;;;0.20;0.13;;;;;;;20.97;70.14;97810.28;5096681;28;20054;-69
2023/08/23 01:17:36;;;;;;;0.13;0.13;;;;;;;20.93;70.47;97818.09;5096714;27;20095;-69
2023/08/23 01:20:05;;;;;;;0.20;0.20;;;;;;;21.00;69.83;97818.72;5114870;27;20044;-69
2023/08/23 01:22:37;;;;;;;0.30;0.20;;;;;;;20.87;70.26;97814.50;5113951;28;20087;-69
2023/08/23 01:25:07;;;;;;;0.17;0.17;;;;;;;20.79;70.98;97817.66;5113333;28;20046;-69
2023/08/23 01:27:35;;;;;;;0.20;0.20;;;;;;;20.83;70.98;97816.09;5089913;28;20043;-69
2023/08/23 01:30:22;;;;;;;0.30;0.30;;;;;;;20.85;70.77;97816.66;5093507;27;20043;-69
2023/08/23 01:32:56;;;;;;;0.30;0.28;;;;;;;20.66;71.25;97826.19;5096274;28;20048;-69
2023/08/23 01:35:28;;;;;;;0.17;0.17;;;;;;;20.61;71.66;97825.31;5093044;28;20042;-69
2023/08/23 01:37:57;;;;;;;0.30;0.30;;;;;;;20.47;71.97;97824.88;5088932;27;20091;-70
2023/08/23 01:40:26;;;;;;;0.20;0.20;;;;;;;20.40;72.31;97826.97;5111478;27;20035;-70
2023/08/23 01:42:54;;;;;;;0.20;0.20;;;;;;;20.60;71.79;97831.81;5109937;28;20043;-70
2023/08/23 01:45:22;;;;;;;0.30;0.30;;;;;;;20.65;71.02;97824.59;5116351;27;20122;-69
2023/08/23 01:47:50;;;;;;;0.10;0.10;;;;;;;20.67;71.37;97825.13;5112476;27;20039;-69
2023/08/23 01:50:18;;;;;;;0.15;0.13;;;;;;;20.62;71.56;97825.09;5113480;27;20060;-69
2023/08/23 01:52:45;;;;;;;0.13;0.13;;;;;;;20.48;71.70;97830.06;5114060;27;20048;-70
2023/08/23 01:55:17;;;;;;;0.22;0.22;;;;;;;20.40;71.67;97822.38;5094810;28;20058;-71
2023/08/23 01:57:46;;;;;;;0.20;0.20;;;;;;;20.52;71.16;97823.06;5094864;28;20048;-68
2023/08/23 02:00:15;;;;;;;0.30;0.20;;;;;;;20.45;71.45;97830.56;5093133;28;20051;-69
2023/08/23 02:02:43;;;;;;;0.20;0.20;;;;;;;20.27;72.06;97833.53;5101436;28;20142;-69
2023/08/23 02:05:11;;;;;;;0.22;0.22;;;;;;;20.14;72.77;97833.94;5096042;28;20043;-69
2023/08/23 02:07:39;;;;;;;0.20;0.20;;;;;;;20.12;72.86;97830.63;5095082;28;20077;-70
2023/08/23 02:10:07;;;;;;;0.10;0.10;;;;;;;20.05;72.98;97827.25;5094336;28;20085;-70
2023/08/23 02:12:35;;;;;;;0.08;0.08;;;;;;;20.10;72.95;97830.88;5118901;27;20035;-69
2023/08/23 02:15:05;;;;;;;0.25;0.25;;;;;;;20.15;72.48;97827.41;5095572;28;20039;-70
2023/08/23 02:17:32;;;;;;;0.22;0.22;;;;;;;20.09;72.59;97823.81;5112826;28;20067;-69
2023/08/23 02:20:00;;;;;;;0.10;0.10;;;;;;;20.06;72.52;97824.31;5092765;28;20036;-71
2023/08/23 02:22:28;;;;;;;0.28;0.25;;;;;;;19.98;72.58;97822.03;5105919;28;20097;-69
2023/08/23 02:24:56;;;;;;;0.20;0.20;;;;;;;19.94;72.88;97820.88;5095089;28;20043;-70
2023/08/23 02:27:24;;;;;;;0.20;0.20;;;;;;;19.87;72.92;97824.84;5082195;28;20032;-70
2023/08/23 02:29:53;;;;;;;0.13;0.13;;;;;;;19.79;73.22;97818.78;5106410;28;20048;-70
2023/08/23 02:32:23;;;;;;;0.15;0.13;;;;;;;19.72;73.20;97823.56;5112679;27;20126;-69
2023/08/23 02:34:51;;;;;;;0.30;0.20;;;;;;;19.49;74.11;97817.47;5111329;27;20044;-69
2023/08/23 02:37:18;;;;;;;0.13;0.13;;;;;;;19.66;73.54;97812.88;5092740;27;20058;-69
2023/08/23 02:39:47;;;;;;;0.20;0.20;;;;;;;19.57;73.83;97806.22;5104893;28;20051;-69
2023/08/23 02:42:14;;;;;;;0.10;0.10;;;;;;;19.63;73.44;97819.59;5120424;27;20048;-69
2023/08/23 02:44:42;;;;;;;0.20;0.20;;;;;;;19.67;73.50;97817.22;5115663;28;20103;-69
2023/08/23 02:47:10;;;;;;;0.13;0.13;;;;;;;19.54;73.84;97809.44;5095189;28;20131;-69
2023/08/23 02:49:39;;;;;;;0.20;0.20;;;;;;;19.51;73.75;97802.63;5113023;28;20039;-69
2023/08/23 02:52:07;;;;;;;1.27;0.15;;;;;;;19.62;73.16;97800.91;5098343;28;20043;-70
2023/08/23 02:54:35;;;;;;;0.10;0.10;;;;;;;19.65;72.63;97812.03;5117655;27;20478;-70
2023/08/23 02:57:03;;;;;;;0.10;0.10;;;;;;;19.47;73.58;97811.44;5093638;28;20035;-70
2023/08/23 02:59:31;;;;;;;0.13;0.13;;;;;;;19.34;74.44;97805.28;5092666;28;20054;-70
2023/08/23 03:01:59;;;;;;;0.30;0.20;;;;;;;19.20;75.20;97801.28;5099158;28;20082;-70
2023/08/23 03:04:26;;;;;;;0.13;0.13;;;;;;;19.15;75.93;97798.47;5111891;28;20039;-69
2023/08/23 03:06:55;;;;;;;0.20;0.20;;;;;;;19.24;75.79;97802.41;5093685;28;20083;-69
2023/08/23 03:09:23;;;;;;;0.15;0.13;;;;;;;19.20;75.88;97809.41;5111854;28;20054;-70
2023/08/23 03:11:51;;;;;;;0.13;0.13;;;;;;;19.30;75.33;97808.75;5098101;28;20134;-68
2023/08/23 03:14:18;;;;;;;0.32;0.30;;;;;;;19.33;74.83;97814.47;5107776;27;20141;-68
2023/08/23 03:16:46;;;;;;;0.13;0.13;;;;;;;19.38;74.36;97811.88;5097869;28;20142;-68
2023/08/23 03:19:14;;;;;;;0.22;0.22;;;;;;;19.33;74.81;97819.06;5093128;28;20052;-69
2023/08/23 03:21:42;;;;;;;0.20;0.20;;;;;;;19.51;73.57;97815.34;5090331;28;20587;-68
2023/08/23 03:24:11;;;;;;;0.05;0.05;;;;;;;19.33;74.01;97814.47;5105965;28;20031;-69
2023/08/23 03:26:39;;;;;;;0.17;0.17;;;;;;;19.08;74.62;97822.16;5086212;28;20044;-69
2023/08/23 03:29:07;;;;;;;0.30;0.30;;;;;;;19.08;74.48;97819.47;5087309;28;20052;-68
2023/08/23 03:31:35;;;;;;;0.20;0.20;;;;;;;19.05;75.33;97815.34;5091484;28;20067;-69
2023/08/23 03:34:04;;;;;;;0.13;0.13;;;;;;;18.97;75.90;97812.22;5093169;28;20044;-68
2023/08/23 03:36:32;;;;;;;0.20;0.20;;;;;;;18.92;76.00;97806.69;5093480;28;20078;-68
2023/08/23 03:39:00;;;;;;;0.13;0.13;;;;;;;18.91;76.16;97815.88;5099014;28;20092;-68
2023/08/23 03:41:31;;;;;;;0.13;0.13;;;;;;;18.91;76.16;97818.59;5099145;28;20075;-68
2023/08/23 03:43:58;;;;;;;0.20;0.20;;;;;;;18.82;76.40;97818.16;5111147;28;20046;-68
2023/08/23 03:46:27;;;;;;;0.10;0.10;;;;;;;18.80;76.34;97820.28;5095002;28;20387;-68
2023/08/23 03:48:55;;;;;;;0.20;0.20;;;;;;;18.84;76.00;97821.44;5093086;28;20052;-68
2023/08/23 03:51:23;;;;;;;0.10;0.10;;;;;;;18.72;76.00;97817.13;5097747;28;20130;-68
2023/08/23 03:53:51;;;;;;;0.08;0.08;;;;;;;18.80;76.04;97822.97;5111741;28;20562;-68
2023/08/23 03:56:19;;;;;;;0.32;0.28;;;;;;;18.75;76.26;97825.59;5096218;28;20052;-68
2023/08/23 03:58:49;;;;;;;0.10;0.10;;;;;;;18.74;76.34;97818.53;5088272;28;20056;-68
2023/08/23 04:01:16;;;;;;;0.15;0.15;;;;;;;18.75;75.98;97824.78;5098855;28;20088;-68
2023/08/23 04:03:44;;;;;;;0.13;0.13;;;;;;;18.84;75.63;97821.44;5092355;28;20170;-68
2023/08/23 04:06:12;;;;;;;0.03;0.03;;;;;;;18.79;75.76;97824.03;5092546;28;20048;-68
2023/08/23 04:08:40;;;;;;;0.28;0.28;;;;;;;18.85;75.46;97823.09;5086063;28;20414;-68
2023/08/23 04:11:08;;;;;;;0.10;0.10;;;;;;;18.85;75.76;97824.97;5091251;27;20130;-69
2023/08/23 04:13:35;;;;;;;0.20;0.20;;;;;;;18.90;75.30;97825.88;5090596;28;20039;-68
2023/08/23 04:16:04;;;;;;;0.10;0.10;;;;;;;18.85;75.02;97831.22;5103286;28;20039;-68
2023/08/23 04:18:32;;;;;;;0.30;0.30;;;;;;;18.85;75.24;97830.38;5098726;27;20035;-68
2023/08/23 04:21:00;;;;;;;0.10;0.10;;;;;;;18.78;75.32;97833.25;5104606;27;20142;-69
2023/08/23 04:23:29;;;;;;;0.20;0.20;;;;;;;18.82;75.07;97825.44;5092206;28;20056;-68
2023/08/23 04:25:58;;;;;;;0.22;0.22;;;;;;;18.70;75.54;97826.31;5095073;27;20036;-68
2023/08/23 04:28:26;;;;;;;0.20;0.20;;;;;;;18.64;75.83;97827.28;5095258;28;20048;-68
2023/08/23 04:30:54;;;;;;;0.10;0.10;;;;;;;18.53;76.19;97832.69;5089287;28;20454;-68
2023/08/23 04:33:23;;;;;;;0.03;0.03;;;;;;;18.60;75.70;97833.41;5089269;28;20039;-68
2023/08/23 04:35:51;;;;;;;0.10;0.10;;;;;;;18.63;75.46;97836.47;5094299;28;20050;-69
2023/08/23 04:38:18;;;;;;;0.13;0.13;;;;;;;18.68;75.37;97833.03;5106596;28;20055;-69
2023/08/23 04:40:47;;;;;;;0.10;0.10;;;;;;;18.64;75.42;97832.69;5113285;28;20065;-69
2023/08/23 04:43:15;;;;;;;0.13;0.13;;;;;;;18.55;75.85;97831.41;5096528;28;20364;-69
2023/08/23 04:45:42;;;;;;;0.22;0.22;;;;;;;18.52;75.84;97833.75;5115199;28;20054;-69
2023/08/23 04:48:11;;;;;;;0.17;0.17;;;;;;;18.38;76.64;97827.78;5114945;28;20089;-69
2023/08/23 04:50:41;;;;;;;0.13;0.13;;;;;;;18.28;76.76;97841.09;5096658;28;20062;-69
2023/08/23 04:53:09;;;;;;;0.03;0.03;;;;;;;18.24;76.95;97824.53;5096079;28;20039;-69
2023/08/23 04:55:36;;;;;;;0.15;0.15;;;;;;;18.22;76.94;97834.75;5096708;28;20046;-69
2023/08/23 04:58:04;;;;;;;0.20;0.20;;;;;;;18.21;76.98;97837.69;5113961;28;20044;-69
2023/08/23 05:00:32;;;;;;;0.20;0.20;;;;;;;18.22;76.94;97842.88;5114916;28;20074;-69
2023/08/23 05:03:00;;;;;;;0.17;0.15;;;;;;;18.22;77.10;97839.34;5114394;28;20036;-69
2023/08/23 05:05:27;;;;;;;0.10;0.10;;;;;;;18.16;77.07;97843.81;5095456;28;20490;-69
2023/08/23 05:07:56;;;;;;;0.10;0.10;;;;;;;18.12;77.32;97833.72;5113081;28;20593;-69
2023/08/23 05:10:25;;;;;;;0.22;0.22;;;;;;;18.17;77.04;97840.03;5095930;28;20130;-69
2023/08/23 05:12:55;;;;;;;0.10;0.10;;;;;;;18.16;76.87;97846.53;5089774;28;20130;-69
2023/08/23 05:15:25;;;;;;;0.22;0.22;;;;;;;18.18;76.63;97848.97;5095812;28;20106;-69
2023/08/23 05:17:53;;;;;;;0.13;0.13;;;;;;;18.24;76.56;97840.75;5095759;28;20100;-69
2023/08/23 05:20:21;;;;;;;0.10;0.10;;;;;;;18.23;76.34;97846.41;5092794;28;20053;-69
2023/08/23 05:22:49;;;;;;;0.10;0.10;;;;;;;18.19;76.56;97840.63;5113431;28;20122;-69
2023/08/23 05:25:18;;;;;;;0.08;0.08;;;;;;;18.24;76.11;97846.16;5095317;28;20051;-69
2023/08/23 05:27:47;;;;;;;0.13;0.13;;;;;;;18.29;75.91;97851.66;5114332;28;20138;-69
2023/08/23 05:30:15;;;;;;;0.20;0.20;;;;;;;18.37;75.73;97852.38;5095387;28;20040;-69
2023/08/23 05:32:43;;;;;;;0.17;0.17;;;;;;;18.39;75.33;97850.22;5095833;28;20502;-69
2023/08/23 05:35:11;;;;;;;0.13;0.13;;;;;;;18.43;75.21;97843.28;5095505;28;20047;-69
2023/08/23 05:37:40;;;;;;;0.13;0.13;;;;;;;18.46;75.26;97846.34;5095435;28;20479;-69
2023/08/23 05:40:09;;;;;;;0.08;0.08;;;;;;;18.40;75.20;97841.06;5094848;28;20052;-69
2023/08/23 05:42:38;;;;;;;0.77;0.10;;;;;;;18.46;75.19;97843.66;5095685;28;20399;-69
2023/08/23 05:45:08;;;;;;;0.13;0.13;;;;;;;18.55;74.94;97841.41;5097712;28;20117;-69
2023/08/23 05:47:35;;;;;;;0.17;0.17;;;;;;;18.54;74.62;97839.75;5098749;28;20127;-69
2023/08/23 05:50:04;;;;;;;0.30;0.30;;;;;;;18.59;74.53;97840.69;5097855;28;20191;-69
2023/08/23 05:52:31;;;;;;;0.30;0.20;;;;;;;18.64;74.32;97846.22;5097129;28;20035;-68
2023/08/23 05:54:59;;;;;;;0.30;0.30;;;;;;;18.71;74.29;97843.38;5115528;28;20043;-69
2023/08/23 05:57:27;;;;;;;0.20;0.20;;;;;;;18.81;73.78;97842.75;5118103;28;20036;-69
2023/08/23 05:59:56;;;;;;;0.10;0.10;;;;;;;18.83;73.52;97854.16;5116856;28;20051;-68
2023/08/23 06:02:24;;;;;;;0.10;0.10;;;;;;;18.84;73.58;97853.91;5119284;28;20119;-68
2023/08/23 06:04:52;;;;;;;0.30;0.30;;;;;;;18.91;72.88;97851.03;5116765;28;20051;-67
2023/08/23 06:07:20;;;;;;;0.28;0.13;;;;;;;18.99;72.48;97846.09;5117377;28;20050;-67
2023/08/23 06:09:48;;;;;;;0.15;0.15;;;;;;;19.05;72.46;97855.13;5115615;28;20048;-67
2023/08/23 06:12:15;;;;;;;0.30;0.10;;;;;;;19.06;72.29;97851.34;5116933;28;20036;-67
2023/08/23 06:14:43;;;;;;;0.03;0.03;;;;;;;19.12;71.60;97846.84;5114404;28;20052;-67
2023/08/23 06:17:12;;;;;;;0.20;0.15;;;;;;;19.17;71.32;97846.94;5113548;28;20039;-68
2023/08/23 06:19:40;;;;;;;0.17;0.13;;;;;;;19.27;71.13;97847.94;5114106;28;20050;-68
2023/08/23 06:22:07;;;;;;;0.13;0.13;;;;;;;19.36;70.98;97842.94;5114181;28;20046;-68
2023/08/23 06:24:35;;;;;;;0.20;0.20;;;;;;;19.40;70.45;97849.53;5112746;28;20042;-68
2023/08/23 06:27:03;;;;;;;0.13;0.13;;;;;;;19.47;70.74;97852.88;5112282;28;20128;-69
2023/08/23 06:29:31;;;;;;;0.13;0.13;;;;;;;19.53;70.06;97849.22;5112514;28;20036;-69
2023/08/23 06:31:58;;;;;;;0.20;0.20;;;;;;;19.61;70.03;97853.44;5114331;28;20131;-68
2023/08/23 06:34:27;;;;;;;0.10;0.10;;;;;;;19.69;69.56;97848.41;5114530;28;20494;-68
2023/08/23 06:36:55;;;;;;;0.10;0.10;;;;;;;19.82;69.59;97849.16;5114299;28;20409;-68
2023/08/23 06:39:23;;;;;;;0.30;0.30;;;;;;;19.93;69.25;97850.97;5111315;28;20482;-68
2023/08/23 06:42:01;;;;;;;0.28;0.20;;;;;;;20.01;68.06;97840.50;5100439;28;20071;-68
2023/08/23 06:44:28;;;;;;;0.22;0.20;;;;;;;20.05;68.48;97846.25;5108882;28;20031;-68
2023/08/23 06:46:56;;;;;;;0.20;0.20;;;;;;;20.10;68.31;97847.16;5100584;28;20163;-68
2023/08/23 06:49:24;;;;;;;0.30;0.20;;;;;;;20.17;68.32;97850.50;5110418;28;20421;-68
2023/08/23 06:51:53;;;;;;;0.50;0.30;;;;;;;20.23;67.98;97856.00;5112290;28;20473;-68
2023/08/23 06:54:20;;;;;;;0.20;0.20;;;;;;;20.33;68.05;97861.56;5104880;28;20469;-68
2023/08/23 06:56:48;;;;;;;0.20;0.20;;;;;;;20.44;67.39;97852.53;5112119;28;20043;-68
2023/08/23 06:59:16;;;;;;;0.10;0.10;;;;;;;20.54;67.29;97854.53;5111611;28;20046;-69
2023/08/23 07:01:43;;;;;;;0.22;0.22;;;;;;;20.64;66.75;97851.97;5112055;28;20500;-68
2023/08/23 07:04:12;;;;;;;0.13;0.13;;;;;;;20.71;66.53;97847.16;5111856;28;20043;-68
2023/08/23 07:06:42;;;;;;;0.20;0.20;;;;;;;20.81;65.51;97847.28;5112040;28;20044;-69
2023/08/23 07:09:11;;;;;;;0.40;0.20;;;;;;;20.93;66.20;97844.41;5111381;28;20046;-68
2023/08/23 07:11:39;;;;;;;0.15;0.15;;;;;;;21.01;65.15;97843.97;5112085;28;20114;-69
2023/08/23 07:14:08;;;;;;;0.13;0.13;;;;;;;21.13;65.11;97848.19;5111888;28;20043;-68
2023/08/23 07:16:36;;;;;;;0.20;0.13;;;;;;;21.18;65.59;97842.00;5111857;28;20166;-68
2023/08/23 07:19:04;;;;;;;0.20;0.20;;;;;;;21.30;65.14;97844.56;5111568;28;20032;-69
2023/08/23 07:21:32;;;;;;;0.13;0.13;;;;;;;21.10;65.68;97845.97;5111856;28;20486;-68
2023/08/23 07:23:59;;;;;;;0.20;0.20;;;;;;;21.18;65.05;97855.56;5111344;28;20052;-68
2023/08/23 07:26:28;;;;;;;0.20;0.20;;;;;;;21.28;64.95;97846.72;5112076;28;20035;-69
2023/08/23 07:28:56;;;;;;;0.13;0.13;;;;;;;21.35;65.14;97847.34;5111197;28;20042;-69
2023/08/23 07:31:23;;;;;;;0.13;0.13;;;;;;;21.50;64.37;97851.00;5111947;28;20107;-69
2023/08/23 07:33:51;;;;;;;0.13;0.13;;;;;;;21.30;65.04;97853.53;5111417;28;20047;-69
2023/08/23 07:36:19;;;;;;;0.10;0.10;;;;;;;21.52;64.81;97848.03;5111730;28;20035;-69
2023/08/23 07:38:46;;;;;;;0.20;0.20;;;;;;;21.70;64.52;97863.13;5111288;28;20494;-69
2023/08/23 07:41:14;;;;;;;0.10;0.10;;;;;;;21.81;63.79;97859.38;5111357;28;20048;-69
2023/08/23 07:43:43;;;;;;;0.10;0.10;;;;;;;21.99;63.92;97859.03;5111512;28;20035;-69
2023/08/23 07:46:11;;;;;;;0.20;0.20;;;;;;;21.93;63.27;97860.03;5112305;28;20043;-69
2023/08/23 07:48:41;;;;;;;0.20;0.20;;;;;;;22.02;62.99;97865.84;5115735;28;20039;-69
2023/08/23 07:51:08;;;;;;;0.13;0.13;;;;;;;22.15;62.81;97868.09;5115612;28;20093;-69
2023/08/23 07:53:37;;;;;;;0.20;0.20;;;;;;;22.36;62.08;97869.03;5111075;28;20126;-69
2023/08/23 07:56:07;;;;;;;0.10;0.10;;;;;;;22.58;61.39;97875.16;5106254;28;20127;-69
2023/08/23 07:58:37;;;;;;;0.10;0.10;;;;;;;22.73;61.22;97877.16;5105200;28;20040;-69
2023/08/23 08:01:06;;;;;;;0.10;0.10;;;;;;;22.98;60.07;97878.06;5115762;28;20065;-69
2023/08/23 08:03:34;;;;;;;0.10;0.10;;;;;;;22.89;60.41;97874.25;5113540;28;20040;-69
2023/08/23 08:06:01;;;;;;;0.20;0.10;;;;;;;22.78;60.64;97872.56;5115147;28;20093;-69
2023/08/23 08:08:30;;;;;;;0.20;0.20;;;;;;;22.94;59.82;97866.09;5115051;28;20118;-69
2023/08/23 08:10:59;;;;;;;0.10;0.10;;;;;;;23.21;60.06;97878.69;5116057;28;20087;-69
2023/08/23 08:13:27;;;;;;;0.13;0.13;;;;;;;23.36;58.71;97884.19;5115249;28;20040;-69
2023/08/23 08:15:54;;;;;;;0.13;0.13;;;;;;;23.43;58.73;97874.66;5115205;28;20055;-69
2023/08/23 08:18:24;;;;;;;0.10;0.10;;;;;;;23.58;58.02;97878.50;5114902;28;20421;-69
2023/08/23 08:20:51;;;;;;;0.10;0.03;;;;;;;23.73;58.77;97883.97;5114973;28;20090;-69
2023/08/23 08:23:19;;;;;;;0.38;0.38;;;;;;;23.75;57.09;97876.34;5115416;28;20043;-69
2023/08/23 08:25:47;;;;;;;0.03;0.03;;;;;;;23.87;57.23;97874.16;5114778;28;20043;-69
2023/08/23 08:28:15;;;;;;;0.13;0.10;;;;;;;23.87;57.21;97873.34;5109071;28;20053;-69
2023/08/23 08:30:43;;;;;;;0.10;0.10;;;;;;;23.96;56.68;97877.16;5110307;28;20502;-69
2023/08/23 08:33:11;;;;;;;0.30;0.10;;;;;;;24.02;57.31;97876.06;5112795;28;20122;-69
2023/08/23 08:35:40;;;;;;;0.10;0.10;;;;;;;24.15;56.50;97880.97;5114923;28;20031;-69
2023/08/23 08:38:08;;;;;;;0.10;0.10;;;;;;;24.38;56.75;97869.50;5113716;28;20433;-69
2023/08/23 08:40:36;;;;;;;0.10;0.10;;;;;;;24.47;56.40;97875.19;5114749;28;20429;-69
2023/08/23 08:43:05;;;;;;;0.10;0.10;;;;;;;24.72;56.07;97866.91;5114536;28;20074;-69
2023/08/23 08:45:35;;;;;;;0.15;0.10;;;;;;;24.18;56.44;97874.16;5104293;28;20398;-69
2023/08/23 08:48:03;;;;;;;0.10;0.10;;;;;;;24.46;55.85;97868.91;5111748;28;20082;-69
2023/08/23 08:50:32;;;;;;;0.10;0.10;;;;;;;24.68;55.48;97874.03;5114816;28;20035;-69
2023/08/23 08:53:02;;;;;;;0.03;0.03;;;;;;;24.97;54.98;97882.41;5107241;28;20036;-69
2023/08/23 08:55:30;;;;;;;0.17;0.17;;;;;;;25.19;53.93;97885.59;5114523;28;20398;-69
2023/08/23 08:57:58;;;;;;;0.00;0.00;;;;;;;24.96;54.78;97880.78;5113268;28;20057;-70
2023/08/23 09:00:26;;;;;;;0.05;0.03;;;;;;;25.07;54.80;97882.38;5114463;28;20038;-69
2023/08/23 09:02:57;;;;;;;0.17;0.10;;;;;;;25.35;52.76;97888.22;5114506;28;20073;-69
2023/08/23 09:05:26;;;;;;;0.00;0.00;;;;;;;25.49;52.89;97883.75;5114224;28;20047;-69
2023/08/23 09:07:55;;;;;;;0.20;0.13;;;;;;;25.76;52.67;97886.06;5114178;28;20077;-69
2023/08/23 09:10:25;;;;;;;0.10;0.10;;;;;;;25.98;51.01;97871.91;5114178;28;20082;-69
2023/08/23 09:12:53;;;;;;;0.10;0.10;;;;;;;25.97;50.97;97879.31;5114643;28;20040;-69
2023/08/23 09:15:23;;;;;;;0.03;0.03;;;;;;;26.01;51.47;97879.56;5112142;28;20131;-69
2023/08/23 09:17:53;;;;;;;0.05;0.05;;;;;;;26.19;51.16;97876.09;5114291;28;20047;-69
2023/08/23 09:20:22;;;;;;;0.30;0.15;;;;;;;25.92;50.86;97871.97;5111347;28;20043;-69
2023/08/23 09:22:53;;;;;;;0.10;0.10;;;;;;;26.01;50.36;97868.63;5114389;28;20450;-69
2023/08/23 09:25:21;;;;;;;0.20;0.08;;;;;;;26.13;50.58;97867.13;5114209;28;20410;-69
2023/08/23 09:27:52;;;;;;;0.03;0.03;;;;;;;26.21;50.17;97865.69;5114185;28;20879;-69
2023/08/23 09:30:21;;;;;;;0.10;0.10;;;;;;;26.36;49.34;97881.19;5113716;28;20039;-69
2023/08/23 09:32:49;;;;;;;0.10;0.10;;;;;;;26.29;50.16;97878.78;5113834;28;20040;-69
2023/08/23 09:35:17;;;;;;;0.13;0.13;;;;;;;25.88;50.37;97881.03;5113789;28;20039;-69
2023/08/23 09:37:46;;;;;;;0.10;0.08;;;;;;;26.18;50.35;97875.28;5114358;28;20040;-69
2023/08/23 09:40:18;;;;;;;0.10;0.10;;;;;;;26.10;49.77;97875.91;5113506;28;20046;-69
2023/08/23 09:42:47;;;;;;;0.03;0.03;;;;;;;26.04;50.19;97873.53;5102204;28;20035;-69
2023/08/23 09:45:18;;;;;;;0.10;0.10;;;;;;;26.23;50.40;97872.50;5101610;28;20047;-69
2023/08/23 09:47:49;;;;;;;0.10;0.10;;;;;;;26.27;49.58;97864.56;5113003;28;20047;-68
2023/08/23 09:50:18;;;;;;;0.03;0.03;;;;;;;26.37;49.34;97864.44;5105329;28;20483;-68
2023/08/23 09:52:50;;;;;;;0.10;0.10;;;;;;;26.24;50.05;97873.34;5090528;28;20388;-69
2023/08/23 09:55:18;;;;;;;;;;;;;;;26.25;49.85;97869.50;5113977;28;20166;-68
2023/08/23 09:57:46;;;;;;;0.00;0.00;;;;;;;26.58;49.65;97868.59;5113770;28;19927;-69
2023/08/23 10:00:17;;;;;;;0.20;0.20;;;;;;;26.92;48.45;97863.03;5113484;28;20050;-68
2023/08/23 10:02:46;;;;;;;0.00;0.00;;;;;;;26.91;48.41;97869.56;5113494;28;20520;-68
2023/08/23 10:05:14;;;;;;;0.10;0.10;;;;;;;27.04;48.77;97868.06;5113235;28;20051;-68
2023/08/23 10:07:42;;;;;;;0.03;0.03;;;;;;;26.99;47.38;97860.72;5113796;28;20411;-68
2023/08/23 10:10:11;;;;;;;0.10;0.10;;;;;;;27.08;47.81;97862.84;5115184;28;20490;-68
2023/08/23 10:12:41;;;;;;;0.00;0.00;;;;;;;26.55;47.70;97857.44;5114089;28;20435;-68
2023/08/23 10:15:11;;;;;;;0.00;0.00;;;;;;;26.16;47.58;97860.28;5113795;28;20047;-68
2023/08/23 10:17:40;;;;;;;0.03;0.03;;;;;;;26.34;47.55;97856.84;5115573;28;20133;-68
2023/08/23 10:20:09;;;;;;;0.10;0.10;;;;;;;26.61;46.52;97850.78;5119294;28;20578;-68
2023/08/23 10:22:37;;;;;;;0.00;0.00;;;;;;;25.90;47.88;97846.00;5120519;28;20059;-68
2023/08/23 10:25:16;;;;;;;0.00;0.00;;;;;;;26.45;46.80;97838.38;5120257;28;20451;-67
2023/08/23 10:27:46;;;;;;;0.10;0.10;;;;;;;26.80;44.60;97842.59;5120593;28;20065;-68
2023/08/23 10:30:22;;;;;;;0.08;0.03;;;;;;;26.96;45.42;97844.88;5114044;28;20517;-68
2023/08/23 10:32:52;;;;;;;0.10;0.10;;;;;;;26.97;44.63;97843.78;5113035;28;20077;-68
2023/08/23 10:35:22;;;;;;;0.20;0.20;;;;;;;27.26;44.72;97835.44;5106959;28;20043;-68
2023/08/23 10:37:49;;;;;;;0.08;0.08;;;;;;;27.48;44.73;97837.56;5115102;28;20114;-68
2023/08/23 10:40:19;;;;;;;0.10;0.10;;;;;;;27.85;44.12;97838.63;5117867;28;20035;-68
2023/08/23 10:42:47;;;;;;;0.10;0.10;;;;;;;28.03;44.11;97822.09;5119183;28;20074;-67
2023/08/23 10:45:15;;;;;;;0.00;0.00;;;;;;;28.30;43.30;97829.63;5118213;28;20089;-68
2023/08/23 10:47:43;;;;;;;0.10;0.10;;;;;;;28.45;42.78;97832.06;5116671;28;20058;-67
2023/08/23 10:50:12;;;;;;;0.00;0.00;;;;;;;28.68;41.87;97826.66;5115862;28;20413;-68
2023/08/23 10:52:40;;;;;;;0.00;0.00;;;;;;;28.67;40.86;97825.84;5112894;28;20039;-68
2023/08/23 10:55:08;;;;;;;0.00;0.00;;;;;;;28.37;41.87;97829.22;5112263;28;20075;-68
2023/08/23 10:57:36;;;;;;;0.00;0.00;;;;;;;28.49;41.58;97827.59;5113237;28;20082;-68
2023/08/23 11:00:04;;;;;;;0.10;0.10;;;;;;;28.73;41.91;97818.34;5112149;28;20054;-68
2023/08/23 11:02:32;;;;;;;0.03;0.03;;;;;;;28.74;41.46;97819.97;5113841;28;20040;-68
2023/08/23 11:04:59;;;;;;;0.03;0.03;;;;;;;29.02;40.86;97818.00;5113627;28;20101;-68
2023/08/23 11:07:28;;;;;;;0.20;0.20;;;;;;;28.52;41.47;97819.88;5113506;28;20039;-68
2023/08/23 11:09:56;;;;;;;0.10;0.10;;;;;;;28.57;41.32;97812.31;5111794;28;20043;-68
2023/08/23 11:12:24;;;;;;;0.10;0.10;;;;;;;28.33;40.62;97814.47;5112185;28;20153;-68
2023/08/23 11:14:51;;;;;;;0.10;0.03;;;;;;;28.42;39.11;97809.91;5112135;28;20042;-68
2023/08/23 11:17:20;;;;;;;0.08;0.08;;;;;;;29.00;38.01;97807.31;5111911;28;20479;-68
2023/08/23 11:19:47;;;;;;;0.00;0.00;;;;;;;29.38;37.83;97804.31;5093600;28;20051;-68
2023/08/23 11:22:17;;;;;;;0.00;0.00;;;;;;;29.48;38.66;97813.13;5103687;28;20075;-69
2023/08/23 11:24:46;;;;;;;0.08;0.08;;;;;;;29.54;38.79;97800.88;5112282;28;20547;-69
2023/08/23 11:27:14;;;;;;;0.10;0.10;;;;;;;29.57;39.01;97807.69;5111785;28;20135;-69
2023/08/23 11:29:43;;;;;;;0.10;0.10;;;;;;;29.67;38.11;97809.38;5095788;28;20520;-69
2023/08/23 11:32:12;;;;;;;0.00;0.00;;;;;;;28.72;38.26;97798.28;5111756;28;20491;-67
2023/08/23 11:34:40;;;;;;;0.10;0.05;;;;;;;29.32;38.69;97792.56;5111688;28;20499;-67
2023/08/23 11:37:08;;;;;;;0.00;0.00;;;;;;;29.74;38.47;97793.22;5111459;28;20036;-68
2023/08/23 11:39:36;;;;;;;0.00;0.00;;;;;;;30.01;37.71;97792.28;5111797;28;20487;-68